createdAt,value
2023-01-06T00:00:08.271Z,55.55
2023-01-06T00:01:08.234Z,59.82
2023-01-06T00:02:08.253Z,54.61
2023-01-06T00:03:08.219Z,58.64
2023-01-06T00:04:08.228Z,51.43
2023-01-06T00:05:08.211Z,63.65
2023-01-06T00:06:08.300Z,60.00
2023-01-06T00:07:08.786Z,53.74
2023-01-06T00:08:08.179Z,57.07
2023-01-06T00:09:08.173Z,63.06
2023-01-06T00:10:08.178Z,58.81
2023-01-06T00:11:08.156Z,59.70
2023-01-06T00:12:08.157Z,61.03
2023-01-06T00:13:08.136Z,59.06
2023-01-06T00:14:08.147Z,50.89
2023-01-06T00:15:08.185Z,59.00
2023-01-06T00:16:08.228Z,55.08
2023-01-06T00:17:08.129Z,57.94
2023-01-06T00:18:08.104Z,60.10
2023-01-06T00:19:09.114Z,60.84
2023-01-06T00:20:08.182Z,63.04
2023-01-06T00:21:08.082Z,54.59
2023-01-06T00:22:12.375Z,50.83
2023-01-06T00:23:08.068Z,45.75
2023-01-06T00:24:08.051Z,46.69
2023-01-06T00:25:08.085Z,43.60
2023-01-06T00:27:57.424Z,57.81
2023-01-06T00:28:57.442Z,44.98
2023-01-06T00:29:57.414Z,45.85
2023-01-06T00:30:57.435Z,46.32
2023-01-06T00:31:57.381Z,51.40
2023-01-06T00:32:57.365Z,64.59
2023-01-06T00:33:57.376Z,53.65
2023-01-06T00:34:57.368Z,58.75
2023-01-06T00:35:58.448Z,60.41
2023-01-06T00:36:58.444Z,54.46
2023-01-06T00:37:58.519Z,50.51
2023-01-06T00:38:58.455Z,54.86
2023-01-06T00:39:58.415Z,53.62
2023-01-06T00:40:58.410Z,50.65
2023-01-06T00:41:58.398Z,55.53
2023-01-06T00:42:58.413Z,65.18
2023-01-06T00:43:59.082Z,50.82
2023-01-06T00:44:58.379Z,59.02
2023-01-06T00:45:58.397Z,56.78
2023-01-06T00:46:58.357Z,58.73
2023-01-06T00:47:58.373Z,50.91
2023-01-06T00:49:07.190Z,44.19
2023-01-06T00:50:00.344Z,54.72
2023-01-06T00:50:58.354Z,45.44
2023-01-06T00:51:59.175Z,42.33
2023-01-06T00:52:59.089Z,44.82
2023-01-06T00:53:58.327Z,56.10
2023-01-06T00:54:58.313Z,57.57
2023-01-06T00:55:58.291Z,44.62
2023-01-06T00:56:58.315Z,45.72
2023-01-06T00:57:58.271Z,44.23
2023-01-06T00:58:58.249Z,48.17
2023-01-06T00:59:58.254Z,48.89
2023-01-06T01:00:59.169Z,58.39
2023-01-06T01:02:00.229Z,59.69
2023-01-06T01:02:58.334Z,56.61
2023-01-06T01:03:59.154Z,56.54
2023-01-06T01:05:05.585Z,52.74
2023-01-06T01:05:58.238Z,53.92
2023-01-06T01:06:58.674Z,54.65
2023-01-06T01:07:58.204Z,52.19
2023-01-06T01:08:58.203Z,51.62
2023-01-06T01:09:58.173Z,45.44
2023-01-06T01:10:58.170Z,57.96
2023-01-06T01:11:58.164Z,57.38
2023-01-06T01:12:58.150Z,48.01
2023-01-06T01:13:58.142Z,60.02
2023-01-06T01:14:58.147Z,52.54
2023-01-06T01:15:58.152Z,56.03
2023-01-06T01:16:58.130Z,59.84
2023-01-06T01:17:58.123Z,56.76
2023-01-06T01:18:58.109Z,61.15
2023-01-06T01:19:58.095Z,64.11
2023-01-06T01:20:58.090Z,62.45
2023-01-06T01:21:58.084Z,59.71
2023-01-06T01:22:58.094Z,44.89
2023-01-06T01:23:58.065Z,59.29
2023-01-06T01:24:58.589Z,61.70
2023-01-06T01:25:58.152Z,50.65
2023-01-06T01:26:58.058Z,55.55
2023-01-06T01:27:58.036Z,67.87
2023-01-06T01:28:58.037Z,60.76
2023-01-06T01:29:58.665Z,59.84
2023-01-06T01:30:58.038Z,61.47
2023-01-06T01:31:58.008Z,63.33
2023-01-06T01:32:58.001Z,57.77
2023-01-06T01:33:57.986Z,57.54
2023-01-06T01:34:58.662Z,60.13
2023-01-06T01:35:57.971Z,54.25
2023-01-06T01:36:57.990Z,60.38
2023-01-06T01:37:57.959Z,63.67
2023-01-06T01:39:00.588Z,55.90
2023-01-06T01:39:58.661Z,49.46
2023-01-06T01:40:57.936Z,53.97
2023-01-06T01:41:58.699Z,52.59
2023-01-06T01:42:57.922Z,46.93
2023-01-06T01:43:57.900Z,57.65
2023-01-06T01:44:58.581Z,46.28
2023-01-06T01:45:57.889Z,50.20
2023-01-06T01:46:57.884Z,63.47
2023-01-06T01:47:57.889Z,56.39
2023-01-06T01:48:57.877Z,51.32
2023-01-06T01:49:57.858Z,60.82
2023-01-06T01:50:57.862Z,55.85
2023-01-06T01:51:57.839Z,52.02
2023-01-06T01:52:57.853Z,57.17
2023-01-06T01:53:57.823Z,49.16
2023-01-06T01:55:00.641Z,52.79
2023-01-06T01:55:58.826Z,51.73
2023-01-06T01:56:57.803Z,49.95
2023-01-06T01:57:57.896Z,59.21
2023-01-06T01:58:57.786Z,58.62
2023-01-06T01:59:57.797Z,55.46
2023-01-06T02:00:57.767Z,54.20
2023-01-06T02:01:57.861Z,51.21
2023-01-06T02:02:57.802Z,57.32
2023-01-06T02:03:57.774Z,51.02
2023-01-06T02:04:57.763Z,63.08
2023-01-06T02:05:57.724Z,48.86
2023-01-06T02:06:57.728Z,50.60
2023-01-06T02:07:57.730Z,53.14
2023-01-06T02:08:57.706Z,52.01
2023-01-06T02:09:57.700Z,53.60
2023-01-06T02:10:57.678Z,49.90
2023-01-06T02:11:57.729Z,42.55
2023-01-06T02:12:57.695Z,44.96
2023-01-06T02:13:57.771Z,55.32
2023-01-06T02:14:57.689Z,65.30
2023-01-06T02:15:57.713Z,56.88
2023-01-06T02:16:57.647Z,42.96
2023-01-06T02:17:59.202Z,41.95
2023-01-06T02:18:57.640Z,43.69
2023-01-06T02:19:57.612Z,63.89
2023-01-06T02:20:57.616Z,47.10
2023-01-06T02:21:57.619Z,42.99
2023-01-06T02:22:57.620Z,48.34
2023-01-06T02:23:57.615Z,54.26
2023-01-06T02:24:59.268Z,59.30
2023-01-06T02:25:57.574Z,50.97
2023-01-06T02:26:57.589Z,57.58
2023-01-06T02:27:57.552Z,53.75
2023-01-06T02:28:57.602Z,61.85
2023-01-06T02:29:57.637Z,63.44
2023-01-06T02:30:57.591Z,58.80
2023-01-06T02:31:57.535Z,56.85
2023-01-06T02:32:57.505Z,46.33
2023-01-06T02:33:57.514Z,57.65
2023-01-06T02:34:57.510Z,54.62
2023-01-06T02:35:58.095Z,43.29
2023-01-06T02:36:57.500Z,58.92
2023-01-06T02:37:57.477Z,57.95
2023-01-06T02:38:57.476Z,55.60
2023-01-06T02:39:57.468Z,41.67
2023-01-06T02:40:57.460Z,52.03
2023-01-06T02:41:57.428Z,53.45
2023-01-06T02:42:58.446Z,61.99
2023-01-06T02:43:57.430Z,54.67
2023-01-06T02:44:57.428Z,49.06
2023-01-06T02:45:57.523Z,42.70
2023-01-06T02:46:57.408Z,45.01
2023-01-06T02:47:59.102Z,50.24
2023-01-06T02:48:58.400Z,45.28
2023-01-06T02:49:57.571Z,58.87
2023-01-06T02:50:58.378Z,42.56
2023-01-06T02:51:57.379Z,43.01
2023-01-06T02:52:57.366Z,52.49
2023-01-06T02:53:57.372Z,43.61
2023-01-06T02:54:57.348Z,55.85
2023-01-06T02:55:57.332Z,50.93
2023-01-06T02:56:57.351Z,42.72
2023-01-06T02:57:57.318Z,48.13
2023-01-06T02:58:57.315Z,65.84
2023-01-06T02:59:57.310Z,50.74
2023-01-06T03:00:57.300Z,46.47
2023-01-06T03:01:57.482Z,41.79
2023-01-06T03:02:57.287Z,55.82
2023-01-06T03:03:57.264Z,54.89
2023-01-06T03:04:57.315Z,56.56
2023-01-06T03:05:57.310Z,59.66
2023-01-06T03:06:57.246Z,46.19
2023-01-06T03:07:57.237Z,43.30
2023-01-06T03:08:57.231Z,53.93
2023-01-06T03:09:57.230Z,53.10
2023-01-06T03:10:58.186Z,57.45
2023-01-06T03:11:57.212Z,50.75
2023-01-06T03:12:57.222Z,52.72
2023-01-06T03:13:59.108Z,56.74
2023-01-06T03:14:57.198Z,53.43
2023-01-06T03:15:57.253Z,50.88
2023-01-06T03:16:57.177Z,54.08
2023-01-06T03:17:57.283Z,54.73
2023-01-06T03:18:57.155Z,51.25
2023-01-06T03:19:57.174Z,43.99
2023-01-06T03:20:57.153Z,52.36
2023-01-06T03:21:57.130Z,57.74
2023-01-06T03:22:57.136Z,57.47
2023-01-06T03:23:57.135Z,63.20
2023-01-06T03:24:57.104Z,62.18
2023-01-06T03:25:57.129Z,52.87
2023-01-06T03:26:57.091Z,56.19
2023-01-06T03:27:57.124Z,50.32
2023-01-06T03:28:57.076Z,49.31
2023-01-06T03:29:57.075Z,52.78
2023-01-06T03:30:57.130Z,54.23
2023-01-06T03:31:57.048Z,61.19
2023-01-06T03:32:57.047Z,57.17
2023-01-06T03:33:57.149Z,49.76
2023-01-06T03:34:57.034Z,48.93
2023-01-06T03:35:57.034Z,52.71
2023-01-06T03:36:57.004Z,49.98
2023-01-06T03:37:57.006Z,62.66
2023-01-06T03:38:57.013Z,51.52
2023-01-06T03:39:57.789Z,54.89
2023-01-06T03:40:56.989Z,56.99
2023-01-06T03:41:56.963Z,58.46
2023-01-06T03:42:56.961Z,51.27
2023-01-06T03:43:57.703Z,58.03
2023-01-06T03:44:56.957Z,56.63
2023-01-06T03:45:56.969Z,52.09
2023-01-06T03:46:57.699Z,60.42
2023-01-06T03:47:57.922Z,52.86
2023-01-06T03:48:57.625Z,58.97
2023-01-06T03:49:57.001Z,51.67
2023-01-06T03:50:56.945Z,57.65
2023-01-06T03:51:56.906Z,52.96
2023-01-06T03:52:56.878Z,60.52
2023-01-06T03:53:56.868Z,61.81
2023-01-06T03:54:56.881Z,54.23
2023-01-06T03:55:56.856Z,59.12
2023-01-06T03:56:56.854Z,56.54
2023-01-06T03:57:56.835Z,58.01
2023-01-06T03:58:56.865Z,61.03
2023-01-06T03:59:56.835Z,59.98
2023-01-06T04:00:56.859Z,57.40
2023-01-06T04:01:56.874Z,60.36
2023-01-06T04:02:56.816Z,64.37
2023-01-06T04:03:56.903Z,61.15
2023-01-06T04:04:56.798Z,55.87
2023-01-06T04:05:56.997Z,64.91
2023-01-06T04:06:56.766Z,63.29
2023-01-06T04:07:56.769Z,59.84
2023-01-06T04:08:56.751Z,65.29
2023-01-06T04:09:56.733Z,62.61
2023-01-06T04:10:56.726Z,62.28
2023-01-06T04:11:56.734Z,51.27
2023-01-06T04:12:56.731Z,59.26
2023-01-06T04:13:56.708Z,60.21
2023-01-06T04:14:56.704Z,57.87
2023-01-06T04:15:56.723Z,59.72
2023-01-06T04:16:56.687Z,59.67
2023-01-06T04:17:56.702Z,58.61
2023-01-06T04:18:56.677Z,60.36
2023-01-06T04:19:56.659Z,62.41
2023-01-06T04:20:56.652Z,66.67
2023-01-06T04:21:56.737Z,59.39
2023-01-06T04:22:56.651Z,55.52
2023-01-06T04:23:56.631Z,61.75
2023-01-06T04:24:57.205Z,61.19
2023-01-06T04:25:56.619Z,66.74
2023-01-06T04:26:56.607Z,60.90
2023-01-06T04:27:56.625Z,59.50
2023-01-06T04:28:56.611Z,58.21
2023-01-06T04:29:56.578Z,63.75
2023-01-06T04:30:56.589Z,60.41
2023-01-06T04:31:56.605Z,61.62
2023-01-06T04:32:56.562Z,63.47
2023-01-06T04:33:56.550Z,63.82
2023-01-06T04:34:56.551Z,62.65
2023-01-06T04:35:56.538Z,63.65
2023-01-06T04:36:57.227Z,63.44
2023-01-06T04:37:56.619Z,64.27
2023-01-06T04:38:56.513Z,64.30
2023-01-06T04:39:56.512Z,64.30
2023-01-06T04:40:56.504Z,65.30
2023-01-06T04:41:57.208Z,63.65
2023-01-06T04:42:56.492Z,62.04
2023-01-06T04:43:58.105Z,64.65
2023-01-06T04:44:57.471Z,62.59
2023-01-06T04:45:56.639Z,63.72
2023-01-06T04:46:56.462Z,60.04
2023-01-06T04:47:56.473Z,59.47
2023-01-06T04:48:56.442Z,60.60
2023-01-06T04:49:56.440Z,61.37
2023-01-06T04:50:56.436Z,64.33
2023-01-06T04:51:56.444Z,65.53
2023-01-06T04:52:56.411Z,63.30
2023-01-06T04:53:56.514Z,61.93
2023-01-06T04:54:56.389Z,62.06
2023-01-06T04:55:56.394Z,63.77
2023-01-06T04:56:56.377Z,60.06
2023-01-06T04:57:56.426Z,62.14
2023-01-06T04:58:56.367Z,64.20
2023-01-06T04:59:56.366Z,63.23
2023-01-06T05:00:56.391Z,62.49
2023-01-06T05:01:56.437Z,66.20
2023-01-06T05:02:56.334Z,60.57
2023-01-06T05:03:56.374Z,62.19
2023-01-06T05:04:56.326Z,66.77
2023-01-06T05:05:56.307Z,62.08
2023-01-06T05:06:56.308Z,63.22
2023-01-06T05:07:56.312Z,61.34
2023-01-06T05:08:57.140Z,60.72
2023-01-06T05:09:57.365Z,58.88
2023-01-06T05:10:56.279Z,65.29
2023-01-06T05:11:57.211Z,63.97
2023-01-06T05:12:56.244Z,62.67
2023-01-06T05:13:56.256Z,60.76
2023-01-06T05:14:56.232Z,61.38
2023-01-06T05:15:56.243Z,66.33
2023-01-06T05:16:56.269Z,64.72
2023-01-06T05:17:56.226Z,64.30
2023-01-06T05:18:56.214Z,57.87
2023-01-06T05:19:56.206Z,64.36
2023-01-06T05:20:56.229Z,66.55
2023-01-06T05:21:56.195Z,66.41
2023-01-06T05:22:56.173Z,62.51
2023-01-06T05:23:56.174Z,64.22
2023-01-06T05:24:57.133Z,62.06
2023-01-06T05:25:56.259Z,67.38
2023-01-06T05:26:56.160Z,67.11
2023-01-06T05:27:56.138Z,61.91
2023-01-06T05:28:58.641Z,65.09
2023-01-06T05:29:56.116Z,64.17
2023-01-06T05:30:56.126Z,68.26
2023-01-06T05:31:56.184Z,64.88
2023-01-06T05:32:56.121Z,65.95
2023-01-06T05:33:56.099Z,65.77
2023-01-06T05:34:56.083Z,65.74
2023-01-06T05:35:56.069Z,62.48
2023-01-06T05:36:57.085Z,63.32
2023-01-06T05:37:56.054Z,65.74
2023-01-06T05:38:56.051Z,65.95
2023-01-06T05:39:56.036Z,63.86
2023-01-06T05:40:56.035Z,65.91
2023-01-06T05:41:56.859Z,64.37
2023-01-06T05:42:56.036Z,62.74
2023-01-06T05:43:56.019Z,62.85
2023-01-06T05:44:55.996Z,64.93
2023-01-06T05:45:56.737Z,63.99
2023-01-06T05:46:55.996Z,63.43
2023-01-06T05:47:56.646Z,65.40
2023-01-06T05:48:55.977Z,64.60
2023-01-06T05:49:55.963Z,66.59
2023-01-06T05:50:55.948Z,63.54
2023-01-06T05:51:55.936Z,64.48
2023-01-06T05:52:55.949Z,65.84
2023-01-06T05:53:55.927Z,62.98
2023-01-06T05:54:55.922Z,68.02
2023-01-06T05:55:56.740Z,65.90
2023-01-06T05:56:55.953Z,64.45
2023-01-06T05:57:55.993Z,66.08
2023-01-06T05:58:55.883Z,64.47
2023-01-06T05:59:55.882Z,64.19
2023-01-06T06:00:55.876Z,66.61
2023-01-06T06:01:55.933Z,64.61
2023-01-06T06:02:55.862Z,65.90
2023-01-06T06:03:56.003Z,65.90
2023-01-06T06:04:55.842Z,68.03
2023-01-06T06:05:55.834Z,64.38
2023-01-06T06:06:55.821Z,64.46
2023-01-06T06:07:55.818Z,65.20
2023-01-06T06:08:55.841Z,63.90
2023-01-06T06:09:55.799Z,64.71
2023-01-06T06:10:56.740Z,65.50
2023-01-06T06:11:55.791Z,63.64
2023-01-06T06:12:55.782Z,62.80
2023-01-06T06:13:55.875Z,63.61
2023-01-06T06:14:55.756Z,63.56
2023-01-06T06:15:55.763Z,64.98
2023-01-06T06:16:55.744Z,68.81
2023-01-06T06:17:56.726Z,65.45
2023-01-06T06:18:55.750Z,67.15
2023-01-06T06:19:55.717Z,64.26
2023-01-06T06:20:55.721Z,67.09
2023-01-06T06:21:55.695Z,65.33
2023-01-06T06:22:55.699Z,66.55
2023-01-06T06:23:55.693Z,65.60
2023-01-06T06:24:55.680Z,65.40
2023-01-06T06:25:55.683Z,64.70
2023-01-06T06:26:55.684Z,63.94
2023-01-06T06:27:55.663Z,65.48
2023-01-06T06:28:55.666Z,65.74
2023-01-06T06:29:55.739Z,65.78
2023-01-06T06:30:55.844Z,65.32
2023-01-06T06:31:56.635Z,68.03
2023-01-06T06:32:55.610Z,67.30
2023-01-06T06:33:56.249Z,60.78
2023-01-06T06:34:55.617Z,64.11
2023-01-06T06:35:55.599Z,65.22
2023-01-06T06:36:55.587Z,67.58
2023-01-06T06:37:55.637Z,68.38
2023-01-06T06:38:55.569Z,66.82
2023-01-06T06:39:55.561Z,63.93
2023-01-06T06:40:55.550Z,66.25
2023-01-06T06:41:55.557Z,65.32
2023-01-06T06:42:55.543Z,63.31
2023-01-06T06:43:55.533Z,63.11
2023-01-06T06:44:55.524Z,64.02
2023-01-06T06:45:55.650Z,65.08
2023-01-06T06:46:55.513Z,64.60
2023-01-06T06:47:55.509Z,64.08
2023-01-06T06:48:55.486Z,63.48
2023-01-06T06:49:55.487Z,67.69
2023-01-06T06:50:55.518Z,65.00
2023-01-06T06:51:55.659Z,63.49
2023-01-06T06:52:56.473Z,64.58
2023-01-06T06:53:55.483Z,66.69
2023-01-06T06:54:55.447Z,66.69
2023-01-06T06:55:55.459Z,63.97
2023-01-06T06:56:55.437Z,67.18
2023-01-06T06:57:55.446Z,71.12
2023-01-06T06:58:55.397Z,71.83
2023-01-06T06:59:56.437Z,68.31
2023-01-06T07:00:55.398Z,64.56
2023-01-06T07:01:55.613Z,67.23
2023-01-06T07:02:55.375Z,67.26
2023-01-06T07:03:55.370Z,67.38
2023-01-06T07:04:55.376Z,66.22
2023-01-06T07:05:55.360Z,66.10
2023-01-06T07:06:55.386Z,65.00
2023-01-06T07:07:55.340Z,64.70
2023-01-06T07:08:55.338Z,69.97
2023-01-06T07:09:55.329Z,64.60
2023-01-06T07:10:56.254Z,71.06
2023-01-06T07:11:55.340Z,65.47
2023-01-06T07:12:55.297Z,64.49
2023-01-06T07:13:55.304Z,63.97
2023-01-06T07:14:55.297Z,66.35
2023-01-06T07:15:55.333Z,65.42
2023-01-06T07:16:55.274Z,64.25
2023-01-06T07:17:55.359Z,65.38
2023-01-06T07:18:55.286Z,68.01
2023-01-06T07:19:55.243Z,69.21
2023-01-06T07:20:55.238Z,67.61
2023-01-06T07:21:55.227Z,67.38
2023-01-06T07:22:55.236Z,65.02
2023-01-06T07:23:55.223Z,68.41
2023-01-06T07:24:55.203Z,65.07
2023-01-06T07:25:55.222Z,65.64
2023-01-06T07:26:55.186Z,66.76
2023-01-06T07:27:56.166Z,67.22
2023-01-06T07:28:55.196Z,67.27
2023-01-06T07:29:55.180Z,64.60
2023-01-06T07:30:55.189Z,65.34
2023-01-06T07:31:55.153Z,65.45
2023-01-06T07:32:55.148Z,67.35
2023-01-06T07:33:55.233Z,66.51
2023-01-06T07:34:55.121Z,67.14
2023-01-06T07:35:55.127Z,65.78
2023-01-06T07:36:55.115Z,67.00
2023-01-06T07:37:56.959Z,67.08
2023-01-06T07:38:55.091Z,68.70
2023-01-06T07:39:55.078Z,66.39
2023-01-06T07:40:55.091Z,64.94
2023-01-06T07:41:56.081Z,63.74
2023-01-06T07:42:55.069Z,65.38
2023-01-06T07:43:55.060Z,64.87
2023-01-06T07:44:55.039Z,63.38
2023-01-06T07:45:55.122Z,68.49
2023-01-06T07:46:55.035Z,65.09
2023-01-06T07:47:55.019Z,65.76
2023-01-06T07:48:55.020Z,68.58
2023-01-06T07:49:55.134Z,67.28
2023-01-06T07:50:55.002Z,66.76
2023-01-06T07:51:54.999Z,65.17
2023-01-06T07:52:54.977Z,67.56
2023-01-06T07:53:54.973Z,66.91
2023-01-06T07:54:54.972Z,66.54
2023-01-06T07:55:54.978Z,66.97
2023-01-06T07:56:54.947Z,74.64
2023-01-06T07:57:54.958Z,65.45
2023-01-06T07:58:54.951Z,67.51
2023-01-06T07:59:54.934Z,66.44
2023-01-06T08:00:54.916Z,67.87
2023-01-06T08:01:55.084Z,66.30
2023-01-06T08:02:54.939Z,73.24
2023-01-06T08:03:54.889Z,76.65
2023-01-06T08:04:54.898Z,65.03
2023-01-06T08:05:54.982Z,65.64
2023-01-06T08:06:54.866Z,64.80
2023-01-06T08:07:54.869Z,66.87
2023-01-06T08:08:54.867Z,65.15
2023-01-06T08:09:54.848Z,71.36
2023-01-06T08:10:54.835Z,70.36
2023-01-06T08:11:54.843Z,63.63
2023-01-06T08:12:54.863Z,65.72
2023-01-06T08:13:54.815Z,64.37
2023-01-06T08:14:54.817Z,64.26
2023-01-06T08:15:54.854Z,65.89
2023-01-06T08:16:54.799Z,66.86
2023-01-06T08:17:54.798Z,65.33
2023-01-06T08:18:54.778Z,67.00
2023-01-06T08:19:54.771Z,67.41
2023-01-06T08:20:54.757Z,67.56
2023-01-06T08:21:54.868Z,68.21
2023-01-06T08:22:54.744Z,69.89
2023-01-06T08:23:54.732Z,68.15
2023-01-06T08:24:54.727Z,67.50
2023-01-06T08:25:54.724Z,64.83
2023-01-06T08:26:54.713Z,64.09
2023-01-06T08:27:55.287Z,66.85
2023-01-06T08:28:55.698Z,68.13
2023-01-06T08:29:55.699Z,66.06
2023-01-06T08:30:55.343Z,65.07
2023-01-06T08:32:09.295Z,64.20
2023-01-06T08:32:56.668Z,66.22
2023-01-06T08:33:54.671Z,66.30
2023-01-06T08:34:54.644Z,72.10
2023-01-06T08:35:54.644Z,66.08
2023-01-06T08:36:54.654Z,70.39
2023-01-06T08:37:54.737Z,65.83
2023-01-06T08:38:54.633Z,66.41
2023-01-06T08:39:55.191Z,67.34
2023-01-06T08:40:54.612Z,67.56
2023-01-06T08:41:54.592Z,67.04
2023-01-06T08:42:54.586Z,67.48
2023-01-06T08:43:54.576Z,68.28
2023-01-06T08:44:54.580Z,64.41
2023-01-06T08:45:54.551Z,63.07
2023-01-06T08:46:54.545Z,63.03
2023-01-06T08:47:54.566Z,64.39
2023-01-06T08:48:54.530Z,65.74
2023-01-06T08:49:54.527Z,67.27
2023-01-06T08:50:54.516Z,66.51
2023-01-06T08:51:54.510Z,66.06
2023-01-06T08:52:54.498Z,68.03
2023-01-06T08:53:54.611Z,65.73
2023-01-06T08:54:54.512Z,67.05
2023-01-06T08:55:54.508Z,67.69
2023-01-06T08:56:54.539Z,66.74
2023-01-06T08:57:55.373Z,65.04
2023-01-06T08:58:54.543Z,67.13
2023-01-06T09:00:27.214Z,66.02
2023-01-06T09:00:54.454Z,65.47
2023-01-06T09:01:54.587Z,66.06
2023-01-06T09:02:55.210Z,67.04
2023-01-06T09:03:54.438Z,67.31
2023-01-06T09:04:54.457Z,68.40
2023-01-06T09:05:54.419Z,65.79
2023-01-06T09:06:55.689Z,65.77
2023-01-06T09:07:54.389Z,63.89
2023-01-06T09:08:54.384Z,65.41
2023-01-06T09:09:54.487Z,63.66
2023-01-06T09:10:54.384Z,66.39
2023-01-06T09:11:54.360Z,63.72
2023-01-06T09:12:54.362Z,65.85
2023-01-06T09:13:54.344Z,65.80
2023-01-06T09:14:55.220Z,65.47
2023-01-06T09:15:54.355Z,65.34
2023-01-06T09:16:54.326Z,64.16
2023-01-06T09:17:54.318Z,66.60
2023-01-06T09:18:54.298Z,65.25
2023-01-06T09:19:55.306Z,64.64
2023-01-06T09:20:54.397Z,65.36
2023-01-06T09:21:54.290Z,67.89
2023-01-06T09:22:54.273Z,69.43
2023-01-06T09:23:54.264Z,66.61
2023-01-06T09:26:43.208Z,64.86
2023-01-06T09:27:43.202Z,65.31
2023-01-06T09:28:43.235Z,62.98
2023-01-06T09:29:43.202Z,65.53
2023-01-06T09:30:43.177Z,67.07
2023-01-06T09:31:43.175Z,67.84
2023-01-06T09:32:43.167Z,66.80
2023-01-06T09:33:43.153Z,65.69
2023-01-06T09:34:43.152Z,66.19
2023-01-06T09:35:43.143Z,65.86
2023-01-06T09:36:43.136Z,67.47
2023-01-06T09:37:43.124Z,64.15
2023-01-06T09:38:43.247Z,63.45
2023-01-06T09:39:43.112Z,65.91
2023-01-06T09:40:43.097Z,65.22
2023-01-06T09:41:43.107Z,65.49
2023-01-06T09:42:44.108Z,66.38
2023-01-06T09:43:43.076Z,65.30
2023-01-06T09:44:43.071Z,63.59
2023-01-06T09:45:43.054Z,63.90
2023-01-06T09:46:43.134Z,66.46
2023-01-06T09:47:43.065Z,64.99
2023-01-06T09:48:43.042Z,64.40
2023-01-06T09:49:43.025Z,66.69
2023-01-06T09:50:43.040Z,67.28
2023-01-06T09:51:43.012Z,69.36
2023-01-06T09:52:44.107Z,68.76
2023-01-06T09:53:45.726Z,65.85
2023-01-06T09:54:44.087Z,67.39
2023-01-06T09:55:44.084Z,66.34
2023-01-06T09:56:45.965Z,66.63
2023-01-06T09:57:44.356Z,66.49
2023-01-06T09:58:44.056Z,63.36
2023-01-06T09:59:44.049Z,65.18
2023-01-06T10:00:44.057Z,67.01
2023-01-06T10:01:44.143Z,67.69
2023-01-06T10:02:44.019Z,68.52
2023-01-06T10:03:44.044Z,73.01
2023-01-06T10:04:44.009Z,66.89
2023-01-06T10:05:44.065Z,70.31
2023-01-06T10:06:43.988Z,65.89
2023-01-06T10:07:43.993Z,65.41
2023-01-06T10:08:43.988Z,65.46
2023-01-06T10:09:43.996Z,66.11
2023-01-06T10:10:43.957Z,63.61
2023-01-06T10:11:43.946Z,65.73
2023-01-06T10:12:44.048Z,64.95
2023-01-06T10:13:43.947Z,66.19
2023-01-06T10:14:43.928Z,65.91
2023-01-06T10:15:43.919Z,65.51
2023-01-06T10:16:43.924Z,65.57
2023-01-06T10:17:43.926Z,66.65
2023-01-06T10:18:45.696Z,67.78
2023-01-06T10:19:43.890Z,67.16
2023-01-06T10:20:44.903Z,66.92
2023-01-06T10:21:45.608Z,69.83
2023-01-06T10:22:43.864Z,67.53
2023-01-06T10:23:43.862Z,65.63
2023-01-06T10:24:43.852Z,68.37
2023-01-06T10:25:43.888Z,70.30
2023-01-06T10:26:43.848Z,66.56
2023-01-06T10:27:44.593Z,66.63
2023-01-06T10:28:43.915Z,67.68
2023-01-06T10:29:43.817Z,65.70
2023-01-06T10:30:44.540Z,67.67
2023-01-06T10:31:44.861Z,66.45
2023-01-06T10:32:43.788Z,66.75
2023-01-06T10:33:43.772Z,65.97
2023-01-06T10:34:43.783Z,66.14
2023-01-06T10:35:43.765Z,66.04
2023-01-06T10:36:43.774Z,66.72
2023-01-06T10:37:45.599Z,65.55
2023-01-06T10:38:43.740Z,68.32
2023-01-06T10:39:43.727Z,66.64
2023-01-06T10:40:43.757Z,65.34
2023-01-06T10:41:44.650Z,64.68
2023-01-06T10:42:44.755Z,64.32
2023-01-06T10:43:43.705Z,64.59
2023-01-06T10:44:43.828Z,63.61
2023-01-06T10:45:43.740Z,66.51
2023-01-06T10:46:43.759Z,64.48
2023-01-06T10:47:44.720Z,64.10
2023-01-06T10:48:43.664Z,66.66
2023-01-06T10:49:43.660Z,68.43
2023-01-06T10:50:43.659Z,66.96
2023-01-06T10:51:45.632Z,65.92
2023-01-06T10:52:43.686Z,65.11
2023-01-06T10:53:44.607Z,64.77
2023-01-06T10:54:43.625Z,66.09
2023-01-06T10:55:43.599Z,68.56
2023-01-06T10:56:43.624Z,65.79
2023-01-06T10:57:43.611Z,66.47
2023-01-06T10:58:43.604Z,66.60
2023-01-06T10:59:44.608Z,64.98
2023-01-06T11:00:44.282Z,68.00
2023-01-06T11:01:43.679Z,65.79
2023-01-06T11:02:43.617Z,67.14
2023-01-06T11:03:43.585Z,68.47
2023-01-06T11:04:43.536Z,67.16
2023-01-06T11:05:45.182Z,66.34
2023-01-06T11:08:30.914Z,65.35
2023-01-06T11:09:30.910Z,65.55
2023-01-06T11:10:31.781Z,64.47
2023-01-06T11:11:30.892Z,64.37
2023-01-06T11:12:30.874Z,65.12
2023-01-06T11:13:32.915Z,63.79
2023-01-06T11:14:30.863Z,65.28
2023-01-06T11:15:32.812Z,66.67
2023-01-06T11:16:31.065Z,65.13
2023-01-06T11:17:30.846Z,64.20
2023-01-06T11:18:30.849Z,66.95
2023-01-06T11:19:30.830Z,67.66
2023-01-06T11:20:31.912Z,68.88
2023-01-06T11:21:31.912Z,68.06
2023-01-06T11:23:32.906Z,65.95
2023-01-06T11:24:32.806Z,68.07
2023-01-06T11:25:31.873Z,65.59
2023-01-06T11:26:31.872Z,67.70
2023-01-06T11:27:31.889Z,64.49
2023-01-06T11:28:32.846Z,63.58
2023-01-06T11:29:31.855Z,65.05
2023-01-06T11:30:31.837Z,66.74
2023-01-06T11:31:32.419Z,65.32
2023-01-06T11:32:33.460Z,65.61
2023-01-06T11:33:31.833Z,65.28
2023-01-06T11:34:31.860Z,67.05
2023-01-06T11:35:32.798Z,67.37
2023-01-06T11:36:31.781Z,67.84
2023-01-06T11:37:31.841Z,68.89
2023-01-06T11:38:31.766Z,66.19
2023-01-06T11:39:31.762Z,66.79
2023-01-06T11:40:31.764Z,65.01
2023-01-06T11:41:31.743Z,64.52
2023-01-06T11:42:32.383Z,66.12
2023-01-06T11:43:31.773Z,67.19
2023-01-06T11:44:31.749Z,65.62
2023-01-06T11:45:31.753Z,66.44
2023-01-06T11:46:31.699Z,65.71
2023-01-06T11:47:32.704Z,66.78
2023-01-06T11:48:31.809Z,66.63
2023-01-06T11:49:31.690Z,65.66
2023-01-06T11:50:31.694Z,67.11
2023-01-06T11:51:31.667Z,67.06
2023-01-06T11:52:31.675Z,67.39
2023-01-06T11:53:31.649Z,68.34
2023-01-06T11:54:31.647Z,65.69
2023-01-06T11:55:31.666Z,66.76
2023-01-06T11:56:31.628Z,65.81
2023-01-06T11:57:31.639Z,66.70
2023-01-06T11:58:31.611Z,67.47
2023-01-06T11:59:31.595Z,67.98
2023-01-06T12:00:31.617Z,70.02
2023-01-06T12:03:38.115Z,65.22
2023-01-06T12:04:40.836Z,66.20
2023-01-06T12:05:38.943Z,66.15
2023-01-06T12:06:38.953Z,65.46
2023-01-06T12:07:38.941Z,65.91
2023-01-06T12:08:38.925Z,65.79
2023-01-06T12:09:38.920Z,64.45
2023-01-06T12:10:40.822Z,64.61
2023-01-06T12:11:38.941Z,65.30
2023-01-06T12:12:39.809Z,65.23
2023-01-06T12:13:44.520Z,66.91
2023-01-06T12:14:40.897Z,64.62
2023-01-06T12:15:38.909Z,65.76
2023-01-06T12:16:38.894Z,65.58
2023-01-06T12:17:39.162Z,63.30
2023-01-06T12:18:38.839Z,65.88
2023-01-06T12:19:38.968Z,67.60
2023-01-06T12:20:38.837Z,67.71
2023-01-06T12:21:38.827Z,67.15
2023-01-06T12:22:38.805Z,67.04
2023-01-06T12:23:38.807Z,68.72
2023-01-06T12:24:38.834Z,66.15
2023-01-06T12:25:38.820Z,66.66
2023-01-06T12:26:38.802Z,65.55
2023-01-06T12:27:39.769Z,66.44
2023-01-06T12:28:39.345Z,65.28
2023-01-06T12:29:39.794Z,66.13
2023-01-06T12:30:38.795Z,67.67
2023-01-06T12:31:38.737Z,66.36
2023-01-06T12:32:38.728Z,67.19
2023-01-06T12:33:38.720Z,67.63
2023-01-06T12:34:38.720Z,66.14
2023-01-06T12:35:38.726Z,67.72
2023-01-06T12:36:38.714Z,68.13
2023-01-06T12:37:38.691Z,66.33
2023-01-06T12:38:38.695Z,65.20
2023-01-06T12:39:39.321Z,64.40
2023-01-06T12:40:38.666Z,64.16
2023-01-06T12:41:38.669Z,64.41
2023-01-06T12:42:38.652Z,64.88
2023-01-06T12:43:38.675Z,64.79
2023-01-06T12:44:38.668Z,65.59
2023-01-06T12:45:41.148Z,65.11
2023-01-06T12:46:39.422Z,67.22
2023-01-06T12:47:38.629Z,65.85
2023-01-06T12:48:38.611Z,66.54
2023-01-06T12:49:38.591Z,64.71
2023-01-06T12:50:38.620Z,63.71
2023-01-06T12:51:38.677Z,64.05
2023-01-06T12:52:38.593Z,64.48
2023-01-06T12:53:38.573Z,64.60
2023-01-06T12:54:38.576Z,67.64
2023-01-06T12:55:38.548Z,67.55
2023-01-06T12:56:38.544Z,64.86
2023-01-06T12:57:38.538Z,64.90
2023-01-06T12:58:38.528Z,65.04
2023-01-06T12:59:38.530Z,64.94
2023-01-06T13:00:39.302Z,64.93